Portada
METAR-TAF:

METAR-TAF

Aeroports :

Kotah, Índia

latitud: 25-09-36N, longitud: 075-50-44E, altitud: 273 m

METAR: manca

Hora: 17:58 (12:28 UTC)

Pronòstic

L'informe es va fer fa 13 hores i 28 minuts, a les 23:00 UTC
Pronòstic vàlid del 25 a les 00 UTC al 25 a les 09 UTC
Vent 2 kt amb direcció variable
Visibilitat: 3000 m
calitja
Evolucionant progressivament
l' 25 a les 03 UTC al 25 a les 05 UTC
Vent 5 kt del Oest/Nord-Oest
Visibilitat: 5000 m
Escasses núvols a una alçada de 10000 ft
calitja

TAF: VIKO 242300Z 2500/2509 VRB02KT 3000 HZ NSC BECMG 2503/2505 30005KT 5000 HZ FEW100

Observacions i pronòstics meteorològics de més de 4000 aeroports (METAR i TAF).

Les estacions disponibles són els punts grocs i vermells al mapa.

Posi el ratolí al punt desitjat per veure el nom de l'estació.

Feu clic per veure les observacions i els pronòstics meteorològics.

Per canviar el mapa: feu clic els botons verds amb una creu de color negre per apropar; al botó verd amb un guió per allunyar la imatge; o en les fletxes verdes per a mapes adjacents.


METAR-TAF: